Stonington, Maine
Current Conditions -  °F | °C
As of 7:55 PM on Wednesday 17 Dec 2014 (Local Time) from KRKD Reporting Station
Overcast Overcast  
Wind Chill: 33°   Ceiling: 800
Heat Index: 37°   Visibility: 8mi
Dew Point: 36°   Wind: 6mph
Humidity: 93%   Direction: 340°NNW
Pressure: 29.62"   Gusts: NA
Location:  44.16°N, 68.67°W
Report Text: KRKD 180055Z AUTO 34005KT 8SM OVC008 03/02 A2962 RMK AO1 P0001
Loading
Personal Weather Stations






























Interactive Weather Map New forecast layout! Learn more

10-Day Weather Forecast

Advertisements
Track Severe Weather on mobile